createdAt,value
2022-12-12T00:02:21.420Z,54.41
2022-12-12T00:04:48.586Z,54.42
2022-12-12T00:07:15.510Z,53.82
2022-12-12T00:09:42.430Z,52.97
2022-12-12T00:12:09.474Z,53.55
2022-12-12T00:14:36.403Z,53.96
2022-12-12T00:17:05.003Z,53.12
2022-12-12T00:19:31.958Z,53.17
2022-12-12T00:21:59.266Z,53.25
2022-12-12T00:24:26.273Z,53.70
2022-12-12T00:26:53.252Z,52.44
2022-12-12T00:29:20.231Z,53.24
2022-12-12T00:31:47.207Z,52.14
2022-12-12T00:34:15.461Z,52.32
2022-12-12T00:36:42.646Z,51.68
2022-12-12T00:39:15.185Z,51.70
2022-12-12T00:41:45.107Z,52.43
2022-12-12T00:44:12.717Z,53.69
2022-12-12T00:46:40.088Z,53.66
2022-12-12T00:49:07.095Z,53.76
2022-12-12T00:51:35.630Z,54.11
2022-12-12T00:54:02.559Z,53.24
2022-12-12T00:56:30.799Z,53.04
2022-12-12T00:58:58.032Z,53.98
2022-12-12T01:01:29.487Z,54.04
2022-12-12T01:03:57.266Z,54.60
2022-12-12T01:06:24.631Z,54.68
2022-12-12T01:08:56.341Z,54.35
2022-12-12T01:11:23.690Z,54.22
2022-12-12T01:13:54.302Z,54.21
2022-12-12T01:16:22.491Z,54.65
2022-12-12T01:18:50.186Z,53.77
2022-12-12T01:21:19.709Z,54.20
2022-12-12T01:23:48.070Z,54.01
2022-12-12T01:26:20.209Z,53.78
2022-12-12T01:28:47.851Z,54.02
2022-12-12T01:31:15.722Z,54.48
2022-12-12T01:33:45.974Z,54.38
2022-12-12T01:36:16.852Z,54.04
2022-12-12T01:38:45.000Z,54.76
2022-12-12T01:41:13.595Z,55.18
2022-12-12T01:43:42.420Z,54.50
2022-12-12T01:46:47.056Z,54.83
2022-12-12T01:49:22.670Z,54.84
2022-12-12T01:51:53.654Z,55.05
2022-12-12T01:54:27.186Z,54.48
2022-12-12T01:56:58.391Z,54.93
2022-12-12T01:59:29.406Z,55.07
2022-12-12T02:01:57.195Z,54.63
2022-12-12T02:04:27.761Z,54.43
2022-12-12T02:06:56.181Z,54.95
2022-12-12T02:09:25.762Z,54.98
2022-12-12T02:11:56.561Z,54.93
2022-12-12T02:14:30.258Z,55.49
2022-12-12T02:17:23.040Z,54.93
2022-12-12T02:20:52.300Z,55.14
2022-12-12T02:23:50.914Z,54.23
2022-12-12T02:27:12.761Z,54.52
2022-12-12T02:30:09.406Z,54.64
2022-12-12T02:33:09.850Z,55.12
2022-12-12T02:35:51.522Z,54.32
2022-12-12T02:38:31.303Z,55.00
2022-12-12T02:41:15.416Z,55.84
2022-12-12T02:43:56.138Z,55.87
2022-12-12T02:46:31.219Z,55.33
2022-12-12T02:49:04.653Z,55.65
2022-12-12T02:51:34.402Z,55.36
2022-12-12T02:54:04.058Z,55.22
2022-12-12T02:56:54.614Z,54.93
2022-12-12T02:59:27.525Z,54.79
2022-12-12T03:02:48.018Z,54.57
2022-12-12T03:06:01.154Z,54.28
2022-12-12T03:08:49.921Z,54.52
2022-12-12T03:11:38.004Z,54.79
2022-12-12T03:14:17.159Z,55.09
2022-12-12T03:16:56.233Z,55.23
2022-12-12T03:19:29.046Z,55.62
2022-12-12T03:22:05.336Z,55.05
2022-12-12T03:24:43.011Z,54.71
2022-12-12T03:27:18.594Z,55.35
2022-12-12T03:29:54.102Z,55.10
2022-12-12T03:32:28.152Z,55.41
2022-12-12T03:35:02.390Z,55.73
2022-12-12T03:37:35.649Z,55.95
2022-12-12T03:40:10.194Z,55.98
2022-12-12T03:42:44.397Z,56.03
2022-12-12T03:45:20.182Z,56.31
2022-12-12T03:47:54.061Z,56.56
2022-12-12T03:50:25.100Z,56.17
2022-12-12T03:53:01.265Z,56.25
2022-12-12T03:55:36.888Z,57.03
2022-12-12T03:58:11.519Z,56.74
2022-12-12T04:00:43.899Z,56.01
2022-12-12T04:03:21.410Z,56.03
2022-12-12T04:06:17.364Z,56.63
2022-12-12T04:09:05.519Z,56.28
2022-12-12T04:11:59.137Z,56.53
2022-12-12T04:15:03.669Z,56.37
2022-12-12T04:17:41.178Z,56.38
2022-12-12T04:20:40.815Z,55.77
2022-12-12T04:23:21.316Z,55.43
2022-12-12T04:26:23.581Z,55.69
2022-12-12T04:29:02.768Z,55.53
2022-12-12T04:31:35.537Z,55.62
2022-12-12T04:34:12.257Z,55.52
2022-12-12T04:36:43.763Z,55.25
2022-12-12T04:39:14.499Z,54.91
2022-12-12T04:41:46.617Z,54.57
2022-12-12T04:44:17.592Z,53.04
2022-12-12T04:46:49.167Z,52.55
2022-12-12T04:49:22.056Z,53.19
2022-12-12T04:51:55.872Z,53.15
2022-12-12T04:54:32.769Z,53.05
2022-12-12T04:57:07.803Z,53.57
2022-12-12T04:59:35.541Z,53.03
2022-12-12T05:02:14.920Z,53.49
2022-12-12T05:04:49.370Z,53.22
2022-12-12T05:07:28.060Z,53.52
2022-12-12T05:09:56.872Z,53.59
2022-12-12T05:12:25.201Z,54.02
2022-12-12T05:14:52.154Z,53.87
2022-12-12T05:17:30.927Z,54.10
2022-12-12T05:19:58.778Z,54.65
2022-12-12T05:22:25.797Z,54.65
2022-12-12T05:24:52.733Z,54.85
2022-12-12T05:27:19.684Z,54.78
2022-12-12T05:29:47.985Z,54.66
2022-12-12T05:32:14.943Z,54.61
2022-12-12T05:34:41.988Z,54.83
2022-12-12T05:37:08.917Z,54.86
2022-12-12T05:39:36.227Z,54.54
2022-12-12T05:42:03.428Z,54.76
2022-12-12T05:44:30.427Z,55.02
2022-12-12T05:46:58.750Z,54.99
2022-12-12T05:49:32.266Z,54.89
2022-12-12T05:51:59.724Z,54.94
2022-12-12T05:54:26.752Z,54.77
2022-12-12T05:56:53.697Z,54.58
2022-12-12T05:59:20.879Z,54.55
2022-12-12T06:01:47.908Z,54.74
2022-12-12T06:04:16.261Z,54.48
2022-12-12T06:06:43.395Z,55.03
2022-12-12T06:09:10.361Z,55.63
2022-12-12T06:11:37.333Z,55.51
2022-12-12T06:14:04.612Z,55.57
2022-12-12T06:16:31.607Z,55.69
2022-12-12T06:18:58.608Z,55.75
2022-12-12T06:21:27.543Z,54.77
2022-12-12T06:23:54.507Z,54.99
2022-12-12T06:26:22.192Z,55.19
2022-12-12T06:28:49.788Z,54.81
2022-12-12T06:31:17.797Z,55.41
2022-12-12T06:33:45.295Z,54.74
2022-12-12T06:36:16.502Z,54.79
2022-12-12T06:38:45.045Z,54.56
2022-12-12T06:41:14.409Z,54.78
2022-12-12T06:43:44.766Z,54.92
2022-12-12T06:46:16.746Z,55.25
2022-12-12T06:48:44.180Z,54.74
2022-12-12T06:51:17.233Z,54.91
2022-12-12T06:53:45.671Z,55.36
2022-12-12T06:56:15.518Z,55.21
2022-12-12T06:58:43.107Z,55.18
2022-12-12T07:01:12.286Z,54.90
2022-12-12T07:03:40.344Z,54.82
2022-12-12T07:06:07.982Z,55.10
2022-12-12T07:08:36.126Z,55.07
2022-12-12T07:11:08.762Z,54.83
2022-12-12T07:13:36.207Z,54.92
2022-12-12T07:16:03.488Z,55.68
2022-12-12T07:18:30.655Z,55.92
2022-12-12T07:20:57.955Z,55.65
2022-12-12T07:23:25.126Z,54.91
2022-12-12T07:25:52.124Z,55.03
2022-12-12T07:28:46.487Z,55.60
2022-12-12T07:31:17.306Z,55.27
2022-12-12T07:33:45.008Z,55.88
2022-12-12T07:36:12.720Z,55.50
2022-12-12T07:38:40.527Z,54.98
2022-12-12T07:41:13.679Z,54.68
2022-12-12T07:43:44.192Z,55.31
2022-12-12T07:46:19.970Z,54.41
2022-12-12T07:48:47.205Z,54.63
2022-12-12T07:51:15.312Z,54.90
2022-12-12T07:53:42.813Z,55.26
2022-12-12T07:56:12.985Z,55.03
2022-12-12T07:58:39.998Z,54.94
2022-12-12T08:01:15.505Z,54.76
2022-12-12T08:03:43.199Z,54.94
2022-12-12T08:06:10.515Z,55.11
2022-12-12T08:08:37.785Z,54.87
2022-12-12T08:11:07.573Z,55.18
2022-12-12T08:13:36.612Z,55.37
2022-12-12T08:16:06.778Z,55.17
2022-12-12T08:18:35.223Z,55.39
2022-12-12T08:21:02.232Z,55.44
2022-12-12T08:23:29.209Z,55.12
2022-12-12T08:25:56.358Z,54.92
2022-12-12T08:28:23.339Z,55.08
2022-12-12T08:30:51.565Z,55.15
2022-12-12T08:33:18.966Z,54.39
2022-12-12T08:35:47.255Z,54.86
2022-12-12T08:38:14.631Z,54.16
2022-12-12T08:40:41.874Z,54.45
2022-12-12T08:43:09.227Z,53.70
2022-12-12T08:45:37.794Z,53.49
2022-12-12T08:48:06.513Z,53.60
2022-12-12T08:50:33.889Z,53.32
2022-12-12T08:53:02.230Z,53.00
2022-12-12T08:55:30.264Z,54.01
2022-12-12T08:57:57.221Z,54.47
2022-12-12T09:00:24.251Z,54.28
2022-12-12T09:02:51.514Z,54.93
2022-12-12T09:05:18.589Z,54.85
2022-12-12T09:07:45.678Z,54.07
2022-12-12T09:10:14.069Z,54.00
2022-12-12T09:12:42.020Z,53.08
2022-12-12T09:15:10.499Z,53.58
2022-12-12T09:17:37.711Z,53.75
2022-12-12T09:20:06.473Z,54.17
2022-12-12T09:22:33.482Z,54.31
2022-12-12T09:25:00.603Z,53.84
2022-12-12T09:27:29.174Z,53.11
2022-12-12T09:29:56.468Z,53.78
2022-12-12T09:32:24.866Z,53.16
2022-12-12T09:34:52.149Z,52.83
2022-12-12T09:37:19.348Z,53.77
2022-12-12T09:39:46.381Z,53.14
2022-12-12T09:42:23.378Z,53.32
2022-12-12T09:44:56.962Z,54.14
2022-12-12T09:47:36.707Z,53.93
2022-12-12T09:50:16.109Z,52.78
2022-12-12T09:52:44.492Z,53.13
2022-12-12T09:55:33.907Z,52.16
2022-12-12T09:58:14.051Z,52.92
2022-12-12T10:00:50.003Z,52.72
2022-12-12T10:03:44.550Z,52.14
2022-12-12T10:06:36.560Z,52.10
2022-12-12T10:09:24.806Z,52.87
2022-12-12T10:11:55.094Z,52.96
2022-12-12T10:14:34.411Z,52.30
2022-12-12T10:17:08.999Z,52.27
2022-12-12T10:19:48.060Z,51.82
2022-12-12T10:22:29.074Z,50.96
2022-12-12T10:25:06.203Z,50.17
2022-12-12T10:27:33.583Z,50.47
2022-12-12T10:30:16.089Z,51.71
2022-12-12T10:33:04.933Z,50.86
2022-12-12T10:35:47.527Z,51.16
2022-12-12T10:38:42.574Z,51.40
2022-12-12T10:41:23.876Z,50.45
2022-12-12T10:44:01.733Z,50.96
2022-12-12T10:46:38.652Z,50.45
2022-12-12T10:49:16.222Z,51.09
2022-12-12T10:51:46.763Z,50.95
2022-12-12T10:54:20.222Z,50.75
2022-12-12T10:57:14.132Z,50.74
2022-12-12T10:59:50.098Z,50.29
2022-12-12T11:02:34.881Z,50.42
2022-12-12T11:05:16.658Z,49.25
2022-12-12T11:07:48.401Z,49.73
2022-12-12T11:10:31.975Z,49.04
2022-12-12T11:13:13.731Z,49.58
2022-12-12T11:15:49.366Z,49.82
2022-12-12T11:18:20.046Z,49.59
2022-12-12T11:20:52.396Z,49.42
2022-12-12T11:23:24.503Z,48.65
2022-12-12T11:25:57.796Z,49.09
2022-12-12T11:28:31.305Z,48.84
2022-12-12T11:31:04.324Z,48.47
2022-12-12T11:33:38.095Z,48.44
2022-12-12T11:36:08.285Z,48.95
2022-12-12T11:38:41.017Z,48.56
2022-12-12T11:41:11.899Z,47.51
2022-12-12T11:43:55.775Z,47.92
2022-12-12T11:46:26.568Z,46.64
2022-12-12T11:49:02.311Z,45.04
2022-12-12T11:51:40.444Z,43.66
2022-12-12T11:54:14.312Z,43.11
2022-12-12T11:56:49.930Z,43.07
2022-12-12T11:59:46.234Z,43.60
2022-12-12T12:03:17.668Z,43.43
2022-12-12T12:06:12.782Z,43.83
2022-12-12T12:09:13.928Z,44.41
2022-12-12T12:11:54.554Z,44.26
2022-12-12T12:14:52.056Z,43.96
2022-12-12T12:17:36.179Z,44.02
2022-12-12T12:20:16.905Z,44.63
2022-12-12T12:23:03.714Z,44.46
2022-12-12T12:25:49.185Z,44.82
2022-12-12T12:28:45.364Z,44.79
2022-12-12T12:31:20.759Z,45.74
2022-12-12T12:34:08.704Z,46.29
2022-12-12T12:36:51.871Z,46.45
2022-12-12T12:39:52.080Z,47.04
2022-12-12T12:42:37.799Z,47.29
2022-12-12T12:45:16.316Z,46.90
2022-12-12T12:47:52.457Z,46.48
2022-12-12T12:50:24.941Z,47.09
2022-12-12T12:52:59.255Z,46.00
2022-12-12T12:55:35.189Z,46.04
2022-12-12T12:58:07.019Z,45.66
2022-12-12T13:00:36.703Z,46.19
2022-12-12T13:03:13.407Z,47.00
2022-12-12T13:05:46.115Z,46.69
2022-12-12T13:08:24.411Z,46.09
2022-12-12T13:10:58.582Z,46.51
2022-12-12T13:13:30.640Z,46.22
2022-12-12T13:16:05.557Z,46.46
2022-12-12T13:18:45.066Z,46.48
2022-12-12T13:21:24.031Z,46.70
2022-12-12T13:24:02.965Z,47.34
2022-12-12T13:26:44.771Z,47.41
2022-12-12T13:29:32.754Z,46.92
2022-12-12T13:32:49.570Z,47.98
2022-12-12T13:35:25.458Z,47.12
2022-12-12T13:37:58.439Z,47.61
2022-12-12T13:40:33.688Z,47.84
2022-12-12T13:43:09.430Z,47.42
2022-12-12T13:45:45.519Z,47.39
2022-12-12T13:48:46.537Z,47.80
2022-12-12T13:51:39.275Z,47.45
2022-12-12T13:54:53.575Z,48.05
2022-12-12T13:57:33.388Z,47.32
2022-12-12T14:00:29.958Z,48.21
2022-12-12T14:03:06.169Z,47.41
2022-12-12T14:05:39.760Z,48.07
2022-12-12T14:08:21.511Z,47.62
2022-12-12T14:11:01.134Z,47.04
2022-12-12T14:13:42.873Z,47.04
2022-12-12T14:16:25.256Z,47.61
2022-12-12T14:19:07.298Z,48.05
2022-12-12T14:21:45.787Z,47.48
2022-12-12T14:25:06.249Z,47.70
2022-12-12T14:28:29.541Z,47.35
2022-12-12T14:31:13.931Z,47.88
2022-12-12T14:34:07.338Z,47.54
2022-12-12T14:37:03.803Z,47.88
2022-12-12T14:40:10.737Z,48.02
2022-12-12T14:43:19.135Z,48.31
2022-12-12T14:45:38.990Z,48.19
2022-12-12T14:48:21.330Z,47.54
2022-12-12T14:50:56.378Z,48.16
2022-12-12T14:53:31.785Z,48.21
2022-12-12T14:56:03.366Z,47.73
2022-12-12T14:58:36.607Z,47.69
2022-12-12T15:01:06.075Z,48.52
2022-12-12T15:03:40.274Z,48.84
2022-12-12T15:06:33.116Z,48.77
2022-12-12T15:09:24.476Z,48.56
2022-12-12T15:11:54.390Z,48.27
2022-12-12T15:14:26.264Z,48.28
2022-12-12T15:17:01.409Z,48.60
2022-12-12T15:19:34.937Z,48.46
2022-12-12T15:22:10.774Z,48.40
2022-12-12T15:24:39.893Z,48.99
2022-12-12T15:27:07.349Z,48.04
2022-12-12T15:29:37.480Z,48.34
2022-12-12T15:32:15.648Z,48.44
2022-12-12T15:34:45.773Z,49.53
2022-12-12T15:37:28.451Z,49.17
2022-12-12T15:40:17.477Z,49.17
2022-12-12T15:42:50.868Z,48.77
2022-12-12T15:45:25.585Z,48.73
2022-12-12T15:47:54.425Z,49.26
2022-12-12T15:50:25.790Z,49.75
2022-12-12T15:53:20.841Z,49.67
2022-12-12T15:56:00.549Z,49.44
2022-12-12T15:58:30.917Z,50.92
2022-12-12T16:01:20.399Z,50.06
2022-12-12T16:03:59.339Z,50.06
2022-12-12T16:06:28.805Z,50.27
2022-12-12T16:09:08.245Z,50.63
2022-12-12T16:11:45.183Z,50.42
2022-12-12T16:14:39.689Z,49.85
2022-12-12T16:17:13.630Z,50.74
2022-12-12T16:19:52.972Z,50.19
2022-12-12T16:22:36.190Z,50.24
2022-12-12T16:25:17.520Z,50.45
2022-12-12T16:27:46.824Z,50.31
2022-12-12T16:30:16.645Z,50.81
2022-12-12T16:32:44.175Z,51.07
2022-12-12T16:35:15.790Z,50.72
2022-12-12T16:37:42.835Z,51.20
2022-12-12T16:40:16.500Z,51.98
2022-12-12T16:42:59.346Z,51.92
2022-12-12T16:45:26.813Z,51.08
2022-12-12T16:47:53.970Z,51.51
2022-12-12T16:50:21.233Z,51.06
2022-12-12T16:52:48.211Z,50.66
2022-12-12T16:55:22.293Z,51.79
2022-12-12T16:57:49.344Z,52.03
2022-12-12T17:00:17.456Z,51.64
2022-12-12T17:02:44.727Z,51.01
2022-12-12T17:05:17.711Z,51.44
2022-12-12T17:07:45.109Z,52.18
2022-12-12T17:10:12.770Z,52.04
2022-12-12T17:12:41.416Z,52.25
2022-12-12T17:15:22.025Z,51.55
2022-12-12T17:18:00.453Z,52.96
2022-12-12T17:20:37.516Z,51.91
2022-12-12T17:25:50.432Z,52.63
2022-12-12T17:28:20.008Z,52.00
2022-12-12T17:30:49.875Z,52.76
2022-12-12T17:33:18.436Z,51.88
2022-12-12T17:36:14.710Z,52.71
2022-12-12T17:39:15.247Z,53.10
2022-12-12T17:41:46.077Z,52.85
2022-12-12T17:45:15.626Z,52.24
2022-12-12T17:48:38.980Z,53.25
2022-12-12T17:51:23.838Z,53.42
2022-12-12T17:53:52.624Z,53.21
2022-12-12T17:56:22.862Z,52.70
2022-12-12T17:58:51.047Z,53.58
2022-12-12T18:01:22.363Z,53.32
2022-12-12T18:03:50.442Z,53.04
2022-12-12T18:06:21.247Z,53.39
2022-12-12T18:08:49.229Z,53.91
2022-12-12T18:11:19.807Z,53.12
2022-12-12T18:13:50.247Z,53.40
2022-12-12T18:16:19.189Z,54.06
2022-12-12T18:18:46.512Z,53.64
2022-12-12T18:24:30.762Z,53.47
2022-12-12T18:27:01.172Z,54.02
2022-12-12T18:29:28.276Z,54.23
2022-12-12T18:31:56.916Z,54.45
2022-12-12T18:34:25.136Z,54.31
2022-12-12T18:36:52.511Z,54.72
2022-12-12T18:39:19.876Z,54.49
2022-12-12T18:41:46.895Z,54.21
2022-12-12T18:44:15.762Z,54.59
2022-12-12T18:46:44.034Z,54.77
2022-12-12T18:49:15.554Z,54.99
2022-12-12T18:51:44.168Z,54.17
2022-12-12T18:54:16.084Z,54.76
2022-12-12T18:56:45.212Z,54.56
2022-12-12T18:59:16.803Z,53.85
2022-12-12T19:01:51.465Z,54.64
2022-12-12T19:04:23.390Z,54.53
2022-12-12T19:06:51.455Z,54.74
2022-12-12T19:09:19.941Z,54.08
2022-12-12T19:12:00.040Z,53.43
2022-12-12T19:14:59.761Z,53.75
2022-12-12T19:17:26.254Z,53.51
2022-12-12T19:19:55.294Z,54.09
2022-12-12T19:22:44.256Z,52.91
2022-12-12T19:25:29.972Z,54.02
2022-12-12T19:28:00.454Z,54.16
2022-12-12T19:30:29.382Z,53.50
2022-12-12T19:32:56.823Z,53.68
2022-12-12T19:35:25.465Z,54.20
2022-12-12T19:37:52.562Z,54.29
2022-12-12T19:40:19.716Z,54.27
2022-12-12T19:42:46.754Z,54.13
2022-12-12T19:45:14.669Z,54.32
2022-12-12T19:47:41.717Z,54.31
2022-12-12T19:50:09.672Z,54.61
2022-12-12T19:52:38.036Z,53.62
2022-12-12T19:55:06.434Z,53.88
2022-12-12T19:57:33.438Z,54.24
2022-12-12T20:00:00.377Z,54.69
2022-12-12T20:02:27.481Z,54.02
2022-12-12T20:04:54.511Z,53.88
2022-12-12T20:07:21.546Z,54.09
2022-12-12T20:09:49.996Z,54.58
2022-12-12T20:12:16.955Z,54.81
2022-12-12T20:14:44.135Z,54.28
2022-12-12T20:17:11.519Z,54.69
2022-12-12T20:19:38.517Z,54.88
2022-12-12T20:22:05.511Z,54.13
2022-12-12T20:24:33.878Z,54.31
2022-12-12T20:27:05.583Z,55.46
2022-12-12T20:29:32.788Z,55.42
2022-12-12T20:32:01.160Z,55.59
2022-12-12T20:34:28.691Z,54.47
2022-12-12T20:36:55.950Z,54.57
2022-12-12T20:39:25.705Z,53.92
2022-12-12T20:41:53.836Z,54.34
2022-12-12T20:44:24.029Z,54.53
2022-12-12T20:46:51.939Z,55.26
2022-12-12T20:49:22.229Z,55.15
2022-12-12T20:51:57.871Z,55.25
2022-12-12T20:54:27.211Z,54.84
2022-12-12T20:56:54.876Z,54.99
2022-12-12T20:59:24.127Z,55.42
2022-12-12T21:01:51.426Z,55.29
2022-12-12T21:04:18.698Z,54.68
2022-12-12T21:06:50.940Z,54.76
2022-12-12T21:09:25.047Z,55.28
2022-12-12T21:11:54.829Z,55.38
2022-12-12T21:14:24.207Z,54.53
2022-12-12T21:16:51.708Z,54.72
2022-12-12T21:19:18.915Z,54.00
2022-12-12T21:21:46.691Z,54.39
2022-12-12T21:24:16.720Z,54.79
2022-12-12T21:26:44.800Z,54.54
2022-12-12T21:29:12.689Z,53.79
2022-12-12T21:31:49.916Z,54.43
2022-12-12T21:34:19.082Z,54.93
2022-12-12T21:36:46.315Z,54.38
2022-12-12T21:39:13.469Z,54.51
2022-12-12T21:41:43.634Z,54.67
2022-12-12T21:44:10.785Z,54.71
2022-12-12T21:46:41.533Z,55.26
2022-12-12T21:49:19.677Z,54.93
2022-12-12T21:51:46.918Z,55.69
2022-12-12T21:54:15.447Z,55.18
2022-12-12T21:56:43.302Z,55.60
2022-12-12T21:59:10.959Z,55.43
2022-12-12T22:01:37.960Z,55.28
2022-12-12T22:04:05.588Z,55.61
2022-12-12T22:06:36.099Z,55.63
2022-12-12T22:09:07.405Z,55.79
2022-12-12T22:11:41.437Z,56.56
2022-12-12T22:14:17.349Z,56.20
2022-12-12T22:16:44.654Z,56.01
2022-12-12T22:19:15.308Z,55.93
2022-12-12T22:21:45.810Z,56.30
2022-12-12T22:24:13.132Z,56.23
2022-12-12T22:26:42.799Z,56.03
2022-12-12T22:29:13.671Z,55.59
2022-12-12T22:31:41.572Z,55.17
2022-12-12T22:34:14.025Z,55.55
2022-12-12T22:36:43.180Z,55.70
2022-12-12T22:39:14.817Z,55.24
2022-12-12T22:41:41.758Z,55.38
2022-12-12T22:44:11.972Z,55.93
2022-12-12T22:46:43.678Z,55.90
2022-12-12T22:49:13.694Z,56.71
2022-12-12T22:51:41.423Z,56.21
2022-12-12T22:54:09.882Z,56.18
2022-12-12T22:56:39.804Z,55.97
2022-12-12T22:59:08.118Z,55.62
2022-12-12T23:01:35.718Z,55.37
2022-12-12T23:04:04.416Z,54.88
2022-12-12T23:06:35.550Z,55.17
2022-12-12T23:09:06.461Z,54.82
2022-12-12T23:11:36.475Z,54.39
2022-12-12T23:14:07.323Z,54.44
2022-12-12T23:16:35.576Z,54.61
2022-12-12T23:19:04.791Z,53.97
2022-12-12T23:21:32.981Z,54.28
2022-12-12T23:23:59.938Z,54.51
2022-12-12T23:26:30.120Z,54.75
2022-12-12T23:28:59.813Z,55.49
2022-12-12T23:31:30.148Z,55.07
2022-12-12T23:33:59.815Z,56.03
2022-12-12T23:36:28.287Z,55.46
2022-12-12T23:38:55.735Z,55.26
2022-12-12T23:41:23.760Z,55.21
2022-12-12T23:43:51.491Z,55.36
2022-12-12T23:46:33.302Z,55.71
2022-12-12T23:49:03.885Z,55.38
2022-12-12T23:51:33.414Z,55.70
2022-12-12T23:54:02.823Z,56.04
2022-12-12T23:56:30.393Z,56.18
2022-12-12T23:58:59.317Z,55.79
